Time;durP1;ratioP1;P1;durP2;ratioP2;P2;SDS_P1;SDS_P2;PMS_P1;PMS_P2;Temp;Humidity;BMP_temperature;BMP_pressure;BME280_temperature;BME280_humidity;BME280_pressure;Samples;Min_cycle;Max_cycle;Signal;HPM_P1;HPM_P2
2022/01/31 01:45:02;;;;;;;32.15;13.23;;;;;;;3.17;100.00;94313.66;5570451;22;20055;-87
2022/01/31 01:47:28;;;;;;;30.60;13.88;;;;;;;3.12;100.00;94311.72;5059449;28;20030;-87
2022/01/31 01:49:53;;;;;;;35.80;13.60;;;;;;;3.31;100.00;94302.06;5042368;28;20025;-87
2022/01/31 01:52:19;;;;;;;29.25;13.60;;;;;;;3.27;100.00;94300.94;5059073;28;20081;-88
2022/01/31 01:54:46;;;;;;;30.08;12.85;;;;;;;3.46;100.00;94299.06;5059116;28;20428;-87
2022/01/31 01:57:12;;;;;;;33.75;12.38;;;;;;;3.47;100.00;94287.69;5042803;28;20028;-88
2022/01/31 01:59:39;;;;;;;29.08;11.82;;;;;;;3.46;100.00;94286.13;5042386;28;20028;-87
2022/01/31 02:02:05;;;;;;;24.65;11.05;;;;;;;3.39;100.00;94281.03;5059336;28;20048;-87
2022/01/31 02:04:31;;;;;;;30.60;12.00;;;;;;;3.36;100.00;94275.50;5042632;28;20051;-87
2022/01/31 02:06:57;;;;;;;23.88;10.35;;;;;;;3.43;100.00;94281.38;5058964;28;20020;-87
2022/01/31 02:09:25;;;;;;;27.55;10.02;;;;;;;3.42;100.00;94273.84;5042774;28;20024;-87
2022/01/31 02:11:54;;;;;;;27.95;11.50;;;;;;;3.31;100.00;94278.00;5058812;28;20039;-87
2022/01/31 02:14:22;;;;;;;18.95;8.55;;;;;;;3.27;100.00;94272.47;5059485;28;20047;-87
2022/01/31 02:16:50;;;;;;;17.92;8.73;;;;;;;3.20;100.00;94264.81;5058945;28;20099;-90
2022/01/31 02:19:19;;;;;;;18.45;8.05;;;;;;;3.09;100.00;94260.38;5042594;28;20077;-90
2022/01/31 02:21:45;;;;;;;18.20;7.03;;;;;;;3.13;100.00;94255.56;5058754;28;20040;-90
2022/01/31 02:24:12;;;;;;;14.90;6.80;;;;;;;3.20;100.00;94246.69;5042727;28;20032;-90
2022/01/31 02:26:38;;;;;;;17.23;7.47;;;;;;;3.19;100.00;94244.31;5042586;28;20032;-90
2022/01/31 02:29:05;;;;;;;17.60;7.43;;;;;;;2.89;100.00;94235.59;5042616;28;20089;-89
2022/01/31 02:31:31;;;;;;;19.40;7.43;;;;;;;3.05;100.00;94234.16;5059021;28;20032;-91
2022/01/31 02:33:56;;;;;;;19.17;7.80;;;;;;;3.05;100.00;94223.78;5042326;28;20326;-89
2022/01/31 02:36:21;;;;;;;18.17;7.65;;;;;;;2.89;100.00;94229.63;5059424;28;20029;-90
2022/01/31 02:38:47;;;;;;;15.77;7.07;;;;;;;2.86;100.00;94224.91;5042362;28;20070;-90
2022/01/31 02:41:12;;;;;;;15.63;6.95;;;;;;;3.03;100.00;94223.22;5044282;28;20028;-91
2022/01/31 02:43:38;;;;;;;18.23;7.75;;;;;;;2.83;100.00;94216.56;5062845;28;20033;-87
2022/01/31 02:46:03;;;;;;;19.75;8.20;;;;;;;2.90;100.00;94219.06;5046439;28;20074;-88
2022/01/31 02:48:32;;;;;;;22.10;8.73;;;;;;;2.92;100.00;94208.47;5062929;28;20047;-90
2022/01/31 02:50:58;;;;;;;23.95;10.05;;;;;;;2.99;100.00;94204.00;5062793;28;20448;-89
2022/01/31 02:55:49;;;;;;;19.75;7.68;;;;;;;2.85;100.00;94195.63;5062366;28;20032;-90
2022/01/31 02:58:15;;;;;;;16.95;6.78;;;;;;;2.92;100.00;94191.16;5045909;28;20025;-90
2022/01/31 03:00:41;;;;;;;23.38;7.95;;;;;;;2.93;100.00;94187.56;5061962;28;20020;-90
2022/01/31 03:03:07;;;;;;;21.38;6.88;;;;;;;2.95;100.00;94185.53;5062503;28;20111;-90
2022/01/31 03:05:33;;;;;;;19.30;7.57;;;;;;;2.93;100.00;94184.97;5045690;28;20024;-89
2022/01/31 03:07:58;;;;;;;23.35;9.70;;;;;;;3.07;100.00;94175.19;5062656;28;20448;-90
2022/01/31 03:10:24;;;;;;;29.52;10.52;;;;;;;3.23;100.00;94171.13;5061900;28;20027;-90
2022/01/31 03:12:49;;;;;;;22.55;9.95;;;;;;;3.11;100.00;94162.56;5062214;28;20051;-90
2022/01/31 03:15:15;;;;;;;21.48;8.98;;;;;;;2.88;100.00;94158.19;5045697;28;20050;-89
2022/01/31 03:17:45;;;;;;;22.30;9.40;;;;;;;2.94;100.00;94162.44;5045760;28;20030;-90
2022/01/31 03:20:11;;;;;;;19.83;9.23;;;;;;;2.69;100.00;94161.63;5045849;28;20025;-90
2022/01/31 03:22:36;;;;;;;20.88;8.90;;;;;;;2.52;100.00;94158.91;5062331;28;20032;-90
2022/01/31 03:25:02;;;;;;;21.73;9.75;;;;;;;2.69;100.00;94145.34;5062016;28;20433;-90
2022/01/31 03:27:28;;;;;;;23.95;7.97;;;;;;;2.75;100.00;94141.06;5045358;28;20028;-90
2022/01/31 03:29:53;;;;;;;22.33;8.00;;;;;;;2.85;100.00;94136.13;5045273;28;20110;-90
2022/01/31 03:32:18;;;;;;;23.70;10.15;;;;;;;2.92;100.00;94130.84;5062079;28;20024;-89
2022/01/31 03:34:44;;;;;;;23.52;10.30;;;;;;;2.68;100.00;94133.41;5045493;28;20025;-90
2022/01/31 03:37:09;;;;;;;29.08;10.90;;;;;;;2.58;100.00;94126.19;5045309;28;20068;-90
2022/01/31 03:39:35;;;;;;;28.95;10.38;;;;;;;2.44;100.00;94117.84;5045281;28;20036;-90
2022/01/31 03:42:00;;;;;;;27.17;10.15;;;;;;;2.60;100.00;94111.25;5044900;28;20051;-90
2022/01/31 03:44:26;;;;;;;26.77;10.52;;;;;;;2.77;100.00;94119.13;5061485;28;20032;-89
2022/01/31 03:46:51;;;;;;;21.25;9.90;;;;;;;2.74;100.00;94114.41;5045128;28;20024;-90
2022/01/31 03:49:17;;;;;;;26.95;9.80;;;;;;;2.78;100.00;94115.53;5045122;28;20024;-91
2022/01/31 03:51:42;;;;;;;21.75;9.43;;;;;;;2.81;100.00;94115.09;5061428;28;20341;-90
2022/01/31 03:54:08;;;;;;;26.00;9.57;;;;;;;2.80;100.00;94121.28;5044880;28;20054;-90
2022/01/31 03:56:35;;;;;;;23.40;9.57;;;;;;;2.77;100.00;94123.53;5061585;28;20092;-89
2022/01/31 03:59:01;;;;;;;24.55;9.70;;;;;;;2.64;100.00;94109.78;5061817;28;20348;-91
2022/01/31 04:01:26;;;;;;;17.85;8.07;;;;;;;2.46;100.00;94113.25;5044346;28;20029;-90
2022/01/31 04:03:52;;;;;;;23.02;9.25;;;;;;;2.49;100.00;94102.44;5061290;28;20047;-90
2022/01/31 04:06:17;;;;;;;24.35;9.20;;;;;;;2.54;100.00;94094.81;5061497;28;20035;-90
2022/01/31 04:08:43;;;;;;;19.92;8.27;;;;;;;2.47;100.00;94095.94;5044766;28;20349;-90
2022/01/31 04:11:10;;;;;;;15.50;6.70;;;;;;;2.38;100.00;94079.97;5060806;28;20032;-90
2022/01/31 04:13:36;;;;;;;19.95;7.78;;;;;;;2.48;100.00;94079.41;5061149;28;20085;-90
2022/01/31 04:16:02;;;;;;;20.73;8.40;;;;;;;2.51;100.00;94084.13;5061151;28;20111;-90
2022/01/31 04:18:28;;;;;;;20.13;7.97;;;;;;;2.68;100.00;94085.03;5044467;28;20091;-90
2022/01/31 04:20:53;;;;;;;16.42;7.40;;;;;;;2.76;100.00;94072.78;5044053;28;20123;-90
2022/01/31 04:23:20;;;;;;;16.95;6.65;;;;;;;2.66;100.00;94063.00;5060919;28;20416;-90
2022/01/31 04:33:43;;;;;;;21.77;7.18;;;;;;;2.93;100.00;94050.38;5052237;28;20028;-90
2022/01/31 04:36:10;;;;;;;18.60;7.90;;;;;;;3.19;100.00;94052.72;5043142;28;20041;-89
2022/01/31 04:38:35;;;;;;;20.95;8.90;;;;;;;3.10;100.00;94057.47;5044367;28;20429;-90
2022/01/31 04:41:01;;;;;;;24.27;7.78;;;;;;;3.05;100.00;94039.25;5043206;28;20028;-90
2022/01/31 04:43:26;;;;;;;21.80;8.63;;;;;;;2.87;100.00;94045.34;5043892;28;20068;-90
2022/01/31 04:45:54;;;;;;;23.67;8.15;;;;;;;2.77;100.00;94033.75;5043641;28;20098;-90
2022/01/31 04:48:20;;;;;;;19.65;8.30;;;;;;;2.77;100.00;94045.91;5060359;28;20031;-89
2022/01/31 04:50:46;;;;;;;21.45;9.15;;;;;;;2.80;100.00;94040.28;5059896;28;20428;-89
2022/01/31 04:53:12;;;;;;;23.55;9.10;;;;;;;2.72;100.00;94028.47;5060057;28;20079;-90
2022/01/31 04:55:38;;;;;;;24.10;8.93;;;;;;;2.75;100.00;94029.81;5059933;28;20372;-90
2022/01/31 04:58:04;;;;;;;22.20;8.93;;;;;;;2.59;100.00;94019.16;5043303;28;20035;-89
2022/01/31 05:00:30;;;;;;;30.33;9.02;;;;;;;2.69;100.00;94010.81;5059155;28;20039;-90
2022/01/31 05:02:55;;;;;;;21.30;7.40;;;;;;;2.56;100.00;94011.06;5042507;28;20024;-87
2022/01/31 05:05:21;;;;;;;21.95;7.55;;;;;;;2.71;100.00;94023.50;5043830;28;20025;-90
2022/01/31 05:07:46;;;;;;;19.25;7.25;;;;;;;2.85;100.00;94019.66;5043239;28;20054;-90
2022/01/31 05:10:12;;;;;;;21.48;7.50;;;;;;;3.00;100.00;94006.28;5059364;28;20074;-89
2022/01/31 05:12:37;;;;;;;19.80;8.15;;;;;;;2.94;100.00;93992.44;5060185;28;20111;-88
2022/01/31 05:15:04;;;;;;;21.17;7.95;;;;;;;2.66;100.00;93995.75;5038837;28;20056;-89
2022/01/31 05:17:30;;;;;;;23.05;7.65;;;;;;;2.78;100.00;94011.25;5042759;28;20040;-89
2022/01/31 05:19:55;;;;;;;17.05;7.30;;;;;;;2.73;100.00;94006.75;5043080;28;20439;-90
2022/01/31 05:22:21;;;;;;;18.23;7.50;;;;;;;2.47;100.00;93995.84;5043107;28;20025;-90
2022/01/31 05:24:46;;;;;;;21.15;7.97;;;;;;;2.25;100.00;93977.53;5043181;28;20028;-90
2022/01/31 05:27:13;;;;;;;21.38;7.88;;;;;;;2.05;100.00;93970.91;5059555;28;20028;-90
2022/01/31 05:29:38;;;;;;;17.55;7.20;;;;;;;2.05;100.00;93968.31;5043367;28;20182;-90
2022/01/31 05:32:04;;;;;;;22.48;7.85;;;;;;;2.07;100.00;93965.50;5059881;28;20024;-90
2022/01/31 05:34:30;;;;;;;16.88;7.35;;;;;;;2.16;100.00;93963.38;5043396;28;20383;-90
2022/01/31 05:36:56;;;;;;;24.55;7.05;;;;;;;2.26;100.00;93948.88;5059315;28;20028;-89
2022/01/31 05:39:25;;;;;;;17.42;7.90;;;;;;;2.47;100.00;93954.47;5054927;28;20317;-90
2022/01/31 05:41:52;;;;;;;15.93;6.68;;;;;;;2.21;100.00;93942.81;5042651;28;20056;-90
2022/01/31 05:44:18;;;;;;;19.00;7.82;;;;;;;2.21;100.00;93943.59;5059124;28;20060;-90
2022/01/31 05:46:44;;;;;;;22.10;7.80;;;;;;;2.29;100.00;93928.75;5059313;28;20096;-88
2022/01/31 05:49:09;;;;;;;22.17;8.20;;;;;;;2.31;100.00;93927.53;5077173;28;20040;-89
2022/01/31 05:51:40;;;;;;;15.75;7.15;;;;;;;2.30;100.00;93922.56;5059279;28;20402;-88
2022/01/31 05:54:06;;;;;;;21.52;7.80;;;;;;;2.30;100.00;93912.22;5059319;28;20034;-87
2022/01/31 05:56:31;;;;;;;21.48;7.50;;;;;;;2.33;100.00;93914.34;5042891;28;20028;-88
2022/01/31 05:58:57;;;;;;;20.90;8.13;;;;;;;2.26;100.00;93917.06;5059239;28;20058;-85
2022/01/31 06:01:22;;;;;;;19.52;7.35;;;;;;;2.08;100.00;93907.63;5058401;28;20032;-89
2022/01/31 06:03:47;;;;;;;19.52;7.57;;;;;;;2.08;100.00;93892.13;5042753;28;20067;-88
2022/01/31 06:06:13;;;;;;;24.40;8.50;;;;;;;2.15;100.00;93882.47;5059101;28;20029;-89
2022/01/31 06:08:38;;;;;;;25.92;8.25;;;;;;;2.10;100.00;93882.38;5059099;28;20031;-88
2022/01/31 06:11:04;;;;;;;18.83;7.35;;;;;;;2.03;100.00;93877.31;5058729;28;20024;-90
2022/01/31 06:13:32;;;;;;;15.68;6.90;;;;;;;2.48;100.00;93878.47;5058906;28;20036;-89
2022/01/31 06:15:58;;;;;;;19.30;7.22;;;;;;;2.61;100.00;93871.47;5061595;28;20029;-89
2022/01/31 06:18:30;;;;;;;18.13;7.53;;;;;;;2.43;100.00;93872.41;5043264;28;20039;-89
2022/01/31 06:20:56;;;;;;;17.15;6.15;;;;;;;2.40;100.00;93868.50;5043009;28;20028;-89
2022/01/31 06:23:21;;;;;;;13.68;6.38;;;;;;;2.49;100.00;93866.34;5026855;28;20426;-90
2022/01/31 06:25:48;;;;;;;18.60;6.13;;;;;;;2.46;100.00;93870.16;5043135;28;20116;-90
2022/01/31 06:28:14;;;;;;;13.57;5.22;;;;;;;2.45;100.00;93870.41;5043186;28;20028;-89
2022/01/31 06:30:39;;;;;;;11.93;5.20;;;;;;;2.37;100.00;93871.53;5042800;28;20021;-89
2022/01/31 06:33:05;;;;;;;13.45;5.18;;;;;;;2.48;100.00;93860.38;5060894;28;20024;-89
2022/01/31 06:35:30;;;;;;;14.30;5.40;;;;;;;2.39;100.00;93859.94;5043257;28;20078;-89
2022/01/31 06:37:56;;;;;;;12.23;4.88;;;;;;;2.40;100.00;93863.34;5043073;28;20020;-89
2022/01/31 06:40:21;;;;;;;12.45;4.07;;;;;;;2.35;100.00;93866.59;5042483;28;20448;-89
2022/01/31 06:42:47;;;;;;;14.50;4.95;;;;;;;2.58;100.00;93875.28;5026640;28;20025;-89
2022/01/31 06:45:14;;;;;;;11.63;4.15;;;;;;;2.52;99.42;93871.84;5026069;28;20021;-89
2022/01/31 06:47:39;;;;;;;11.02;4.25;;;;;;;2.64;95.06;93871.81;5027041;28;20414;-88
2022/01/31 06:50:06;;;;;;;8.65;4.22;;;;;;;2.52;97.94;93861.50;5026167;28;20077;-89
2022/01/31 06:52:36;;;;;;;14.18;5.00;;;;;;;2.37;99.40;93871.53;5043063;28;20021;-89
2022/01/31 06:55:05;;;;;;;10.68;4.47;;;;;;;2.40;98.56;93866.69;5043005;28;20025;-89
2022/01/31 06:57:35;;;;;;;12.50;4.43;;;;;;;2.44;96.12;93867.03;5042552;28;20430;-89
2022/01/31 07:00:03;;;;;;;14.73;4.60;;;;;;;2.64;96.56;93858.88;5026637;28;20029;-90
2022/01/31 07:02:30;;;;;;;11.73;4.85;;;;;;;2.71;92.28;93845.00;5026024;28;20031;-89
2022/01/31 07:04:55;;;;;;;10.40;4.40;;;;;;;2.55;100.00;93849.91;5026481;28;20021;-89
2022/01/31 07:07:21;;;;;;;10.70;4.57;;;;;;;2.53;95.76;93847.56;5042524;28;20021;-90
2022/01/31 07:09:46;;;;;;;9.77;3.80;;;;;;;2.65;90.23;93847.50;5059643;28;20025;-89
2022/01/31 07:12:12;;;;;;;11.45;4.65;;;;;;;2.87;92.84;93846.09;5026150;28;20418;-89
2022/01/31 07:14:38;;;;;;;11.07;4.03;;;;;;;2.74;93.88;93844.56;5026189;28;20052;-90
2022/01/31 07:17:05;;;;;;;9.90;4.25;;;;;;;2.83;87.82;93836.22;5025834;28;20052;-89
2022/01/31 07:19:34;;;;;;;13.02;4.40;;;;;;;2.97;91.00;93828.94;5025784;28;20052;-89
2022/01/31 07:22:00;;;;;;;7.85;3.72;;;;;;;2.92;92.08;93831.44;5042160;28;20430;-88
2022/01/31 07:25:02;;;;;;;10.13;4.45;;;;;;;2.92;92.67;93831.44;5026269;28;20024;-89
2022/01/31 07:27:17;;;;;;;10.50;3.80;;;;;;;2.95;93.21;93819.84;5043197;28;20517;-89
2022/01/31 07:29:45;;;;;;;13.13;4.60;;;;;;;3.05;92.65;93819.25;5025409;28;20029;-90
2022/01/31 07:32:11;;;;;;;9.43;3.35;;;;;;;3.13;91.86;93810.31;5042191;28;20025;-90
2022/01/31 07:34:40;;;;;;;7.47;3.95;;;;;;;3.29;89.02;93799.16;5041806;28;20033;-89
2022/01/31 07:37:06;;;;;;;11.63;4.45;;;;;;;3.35;92.64;93789.69;5025453;28;20029;-90
2022/01/31 07:39:32;;;;;;;10.90;4.47;;;;;;;3.43;96.05;93778.16;5025300;28;20028;-90
2022/01/31 07:41:57;;;;;;;9.70;4.28;;;;;;;3.51;100.00;93783.72;5024973;28;20024;-89
2022/01/31 07:44:23;;;;;;;13.35;5.18;;;;;;;3.63;100.00;93775.84;5059514;28;20025;-90
2022/01/31 07:46:49;;;;;;;12.18;4.63;;;;;;;3.66;100.00;93764.22;5024873;28;20024;-90
2022/01/31 07:49:15;;;;;;;12.15;4.30;;;;;;;3.77;100.00;93757.34;5041626;28;20116;-89
2022/01/31 07:51:41;;;;;;;14.02;4.75;;;;;;;3.86;100.00;93752.53;5041358;28;20061;-89
2022/01/31 07:54:07;;;;;;;8.95;4.25;;;;;;;4.02;100.00;93741.38;5041735;28;20427;-90
2022/01/31 07:56:34;;;;;;;12.05;4.57;;;;;;;4.10;100.00;93737.56;5041069;28;20086;-90
2022/01/31 07:58:59;;;;;;;10.77;4.45;;;;;;;4.22;100.00;93747.81;5025005;28;20055;-90
2022/01/31 08:01:26;;;;;;;15.82;4.78;;;;;;;4.43;100.00;93748.03;5040842;28;20107;-89
2022/01/31 08:03:52;;;;;;;15.15;5.28;;;;;;;4.14;100.00;93743.84;5025409;28;20056;-87
2022/01/31 08:06:18;;;;;;;12.05;4.47;;;;;;;4.04;100.00;93751.47;5041673;28;20032;-87
2022/01/31 08:08:43;;;;;;;11.95;4.90;;;;;;;3.98;100.00;93761.00;5041712;28;20028;-87
2022/01/31 08:11:10;;;;;;;10.63;4.72;;;;;;;4.04;100.00;93764.44;5024555;28;20028;-88
2022/01/31 08:13:35;;;;;;;10.15;4.47;;;;;;;4.28;100.00;93759.78;5024861;28;20029;-88
2022/01/31 08:18:33;;;;;;;13.88;5.10;;;;;;;4.73;100.00;93772.69;5042123;28;20425;-86
2022/01/31 08:20:59;;;;;;;18.10;6.28;;;;;;;4.89;100.00;93768.47;5040351;28;20028;-87
2022/01/31 08:23:24;;;;;;;16.58;5.72;;;;;;;5.05;100.00;93766.78;5041423;28;20115;-87
2022/01/31 08:25:51;;;;;;;17.85;5.53;;;;;;;5.25;100.00;93758.38;5041082;28;20064;-87
2022/01/31 08:28:18;;;;;;;12.45;5.25;;;;;;;5.50;100.00;93755.19;5041199;28;20082;-87
2022/01/31 08:31:01;;;;;;;11.60;5.18;;;;;;;5.62;100.00;93769.81;5040721;28;20029;-88
2022/01/31 08:33:36;;;;;;;13.25;5.35;;;;;;;5.80;100.00;93773.78;5027037;28;20102;-87
2022/01/31 08:36:05;;;;;;;15.68;6.95;;;;;;;5.89;100.00;93774.13;5041098;28;20017;-87
2022/01/31 08:38:30;;;;;;;15.93;7.43;;;;;;;6.01;100.00;93779.91;5040126;28;20418;-87
2022/01/31 08:40:58;;;;;;;21.33;8.88;;;;;;;6.01;100.00;93779.91;5024008;28;20032;-87
2022/01/31 08:43:24;;;;;;;22.13;10.60;;;;;;;6.10;100.00;93772.44;5024196;28;20025;-87
2022/01/31 08:45:50;;;;;;;25.88;10.95;;;;;;;5.75;100.00;93784.16;5040588;28;20025;-87
2022/01/31 08:48:16;;;;;;;24.60;11.38;;;;;;;5.88;100.00;93791.53;5024585;28;20308;-90
2022/01/31 08:50:42;;;;;;;32.00;12.07;;;;;;;5.75;100.00;93786.78;5057611;28;20036;-89
2022/01/31 08:53:08;;;;;;;33.55;12.25;;;;;;;5.66;100.00;93770.88;5024190;28;20120;-89
2022/01/31 08:55:35;;;;;;;30.63;12.27;;;;;;;5.78;100.00;93775.88;5024190;28;20031;-89
2022/01/31 08:58:01;;;;;;;32.28;11.88;;;;;;;5.77;100.00;93777.69;5040870;28;20144;-89
2022/01/31 09:00:33;;;;;;;24.55;11.07;;;;;;;5.83;100.00;93782.91;5023756;28;20024;-89
2022/01/31 09:03:19;;;;;;;26.55;10.20;;;;;;;6.01;100.00;93785.13;5041477;28;20025;-89
2022/01/31 09:05:44;;;;;;;18.75;8.18;;;;;;;5.98;100.00;93764.03;5042316;28;20013;-89
2022/01/31 09:08:10;;;;;;;22.42;9.05;;;;;;;6.22;100.00;93765.19;5040495;28;20031;-89
2022/01/31 09:10:35;;;;;;;19.45;8.60;;;;;;;6.34;100.00;93757.19;5040225;28;20031;-89
2022/01/31 09:13:01;;;;;;;17.98;8.55;;;;;;;6.46;100.00;93753.59;5040395;28;20115;-89
2022/01/31 09:15:26;;;;;;;21.20;10.23;;;;;;;6.73;100.00;93750.78;5039969;28;20031;-89
2022/01/31 09:17:52;;;;;;;26.45;9.52;;;;;;;6.45;100.00;93737.16;5023835;28;20021;-89
2022/01/31 09:20:18;;;;;;;22.83;9.55;;;;;;;6.71;100.00;93733.84;5039813;28;20025;-89
2022/01/31 09:22:44;;;;;;;19.60;7.70;;;;;;;7.06;100.00;93720.06;5040090;28;20028;-89
2022/01/31 09:25:14;;;;;;;17.95;7.45;;;;;;;6.89;100.00;93712.53;5040022;28;20021;-89
2022/01/31 09:27:40;;;;;;;13.80;6.18;;;;;;;7.22;95.02;93707.03;5040224;28;20029;-90
2022/01/31 09:30:09;;;;;;;14.98;5.70;;;;;;;7.06;92.13;93703.66;5039201;28;20029;-89
2022/01/31 09:32:34;;;;;;;14.90;5.30;;;;;;;7.14;91.08;93694.56;5023690;28;20094;-89
2022/01/31 09:35:00;;;;;;;11.98;5.63;;;;;;;6.66;100.00;93695.56;5023382;28;20029;-89
2022/01/31 09:37:27;;;;;;;14.85;6.68;;;;;;;7.14;100.00;93686.72;5023681;28;20053;-89
2022/01/31 09:39:53;;;;;;;15.25;6.43;;;;;;;6.90;100.00;93688.03;5039324;28;20035;-87
2022/01/31 09:42:29;;;;;;;16.80;5.70;;;;;;;7.02;100.00;93684.38;5023590;28;20449;-87
2022/01/31 09:48:30;;;;;;;11.70;4.85;;;;;;;7.56;97.97;93661.38;5040023;28;20032;-87
2022/01/31 09:50:09;;;;;;;12.10;5.30;;;;;;;7.30;97.97;93656.22;5056605;28;20037;-87
2022/01/31 09:52:34;;;;;;;13.25;5.32;;;;;;;7.44;94.77;93640.81;5039525;28;20041;-90
2022/01/31 09:55:00;;;;;;;14.88;5.07;;;;;;;6.97;99.87;93637.50;5022884;28;20044;-90
2022/01/31 09:57:25;;;;;;;14.32;5.68;;;;;;;7.13;96.97;93610.41;5056919;28;20033;-89
2022/01/31 09:59:51;;;;;;;15.80;5.18;;;;;;;7.29;95.89;93612.97;5056868;28;20087;-87
2022/01/31 10:02:17;;;;;;;10.80;5.40;;;;;;;6.82;100.00;93601.88;5022923;28;20033;-89
2022/01/31 10:04:45;;;;;;;9.75;5.40;;;;;;;6.51;100.00;93598.19;5022692;28;20024;-89
2022/01/31 10:07:13;;;;;;;13.40;6.03;;;;;;;7.19;100.00;93585.91;5022790;28;20037;-90
2022/01/31 10:09:38;;;;;;;15.70;6.00;;;;;;;6.97;98.12;93575.00;5038995;28;20032;-89
2022/01/31 10:12:19;;;;;;;16.42;5.65;;;;;;;7.42;98.11;93578.53;5022729;28;20036;-89
2022/01/31 10:17:36;;;;;;;12.73;5.20;;;;;;;7.86;97.55;93560.59;5041897;28;20035;-89
2022/01/31 10:20:06;;;;;;;14.25;5.53;;;;;;;7.48;93.94;93579.28;5038925;28;20127;-89
2022/01/31 10:22:34;;;;;;;13.73;5.00;;;;;;;7.86;92.26;93565.81;5022983;28;20075;-89
2022/01/31 10:25:02;;;;;;;11.85;5.63;;;;;;;7.99;91.37;93567.84;5039034;28;20119;-89
2022/01/31 10:27:34;;;;;;;13.00;5.20;;;;;;;7.82;93.85;93563.00;5022904;28;20040;-90
2022/01/31 10:30:13;;;;;;;12.88;5.47;;;;;;;7.01;99.78;93545.56;5022654;28;20025;-89
2022/01/31 10:32:41;;;;;;;20.33;5.57;;;;;;;6.91;100.00;93535.16;5039230;28;20083;-87
2022/01/31 10:35:09;;;;;;;15.32;5.43;;;;;;;7.31;100.00;93517.84;5022818;28;20480;-87
2022/01/31 10:37:36;;;;;;;15.93;5.82;;;;;;;7.52;100.00;93522.19;5039414;28;20071;-88
2022/01/31 10:46:09;;;;;;;;;;;;;;;7.36;99.98;93489.16;4995893;28;20041;-89
2022/01/31 10:54:38;;;;;;;10.38;2.88;;;;;;;7.76;100.00;93464.97;5041814;28;20044;-86
2022/01/31 10:57:23;;;;;;;6.80;2.65;;;;;;;7.84;100.00;93466.22;5024224;28;20064;-89
2022/01/31 10:59:50;;;;;;;5.90;2.35;;;;;;;7.83;100.00;93464.66;5038187;28;20161;-89
2022/01/31 11:02:21;;;;;;;5.32;2.13;;;;;;;7.97;100.00;93459.63;5025192;28;20028;-90
2022/01/31 11:04:47;;;;;;;7.07;2.28;;;;;;;7.87;100.00;93450.81;5042520;28;20449;-89
2022/01/31 11:07:16;;;;;;;6.70;2.10;;;;;;;7.86;100.00;93453.69;5026302;28;20029;-87
2022/01/31 11:09:42;;;;;;;4.07;1.75;;;;;;;7.88;100.00;93460.19;5025621;28;20035;-88
2022/01/31 11:12:10;;;;;;;5.38;2.50;;;;;;;7.91;100.00;93456.25;5042232;28;20025;-89
2022/01/31 11:14:36;;;;;;;2.90;1.52;;;;;;;7.99;99.31;93447.06;5026017;28;20311;-89
2022/01/31 11:17:10;;;;;;;6.47;2.03;;;;;;;8.03;100.00;93448.88;5053919;28;20032;-89
2022/01/31 11:19:36;;;;;;;7.78;1.75;;;;;;;8.07;98.88;93460.31;5062472;28;20032;-89
2022/01/31 11:22:05;;;;;;;6.45;2.00;;;;;;;8.01;98.79;93443.13;5045429;28;20028;-89
2022/01/31 11:24:36;;;;;;;7.18;2.17;;;;;;;8.16;99.15;93446.66;5062402;28;20024;-90
2022/01/31 11:27:09;;;;;;;7.97;2.22;;;;;;;8.07;98.26;93429.00;5061947;28;20078;-89
2022/01/31 11:29:37;;;;;;;3.63;1.77;;;;;;;8.06;100.00;93421.44;5045709;28;20028;-90
2022/01/31 11:32:04;;;;;;;3.78;1.92;;;;;;;8.10;99.67;93419.06;5061627;28;20068;-90
2022/01/31 11:34:30;;;;;;;4.18;1.88;;;;;;;8.03;100.00;93401.13;5062035;28;20028;-89
2022/01/31 11:36:56;;;;;;;9.15;1.60;;;;;;;8.05;100.00;93407.63;5062088;28;20024;-89
2022/01/31 11:39:22;;;;;;;6.88;1.83;;;;;;;8.09;100.00;93404.47;5061888;28;20471;-89
2022/01/31 11:41:55;;;;;;;6.43;2.08;;;;;;;8.05;100.00;93401.63;5061512;28;20460;-89
2022/01/31 11:44:31;;;;;;;10.32;2.35;;;;;;;8.06;100.00;93403.97;5062057;28;20119;-89
2022/01/31 11:46:58;;;;;;;5.65;1.75;;;;;;;8.09;100.00;93379.16;5061871;28;20453;-89
2022/01/31 11:49:24;;;;;;;11.68;2.13;;;;;;;8.11;100.00;93365.84;5061767;28;20029;-88
2022/01/31 11:52:10;;;;;;;11.90;1.80;;;;;;;8.16;100.00;93331.84;5061195;28;20345;-88
2022/01/31 11:54:48;;;;;;;2.63;1.45;;;;;;;8.15;99.94;93351.19;5061046;28;20434;-89
2022/01/31 11:57:17;;;;;;;6.70;2.20;;;;;;;8.21;98.69;93350.09;5044843;28;20178;-89
2022/01/31 11:59:42;;;;;;;5.90;2.03;;;;;;;8.29;100.00;93336.41;5060883;28;20337;-90
2022/01/31 12:02:13;;;;;;;4.57;2.03;;;;;;;8.19;99.33;93332.09;5061357;28;20028;-89
2022/01/31 12:04:44;;;;;;;4.43;2.20;;;;;;;8.23;99.57;93331.53;5045205;28;20110;-89
2022/01/31 12:07:28;;;;;;;6.47;1.80;;;;;;;8.05;97.27;93316.31;5061519;28;20028;-89
2022/01/31 12:09:55;;;;;;;5.55;1.83;;;;;;;7.94;100.00;93312.25;5060806;28;20031;-87
2022/01/31 12:12:40;;;;;;;3.80;1.98;;;;;;;7.94;100.00;93294.00;5044096;28;20429;-89
2022/01/31 12:24:10;;;;;;;9.60;3.58;;;;;;;7.63;100.00;93273.44;5053682;28;20349;-89
2022/01/31 12:26:51;;;;;;;7.93;2.92;;;;;;;7.78;100.00;93275.91;5060867;28;20505;-87
2022/01/31 12:29:19;;;;;;;9.38;3.50;;;;;;;7.81;100.00;93264.13;5061215;28;20078;-89
2022/01/31 12:32:21;;;;;;;5.60;2.67;;;;;;;8.09;100.00;93261.75;5060586;28;20028;-89
2022/01/31 12:34:59;;;;;;;4.50;2.40;;;;;;;8.30;98.90;93259.69;5044132;28;20040;-89
2022/01/31 12:37:36;;;;;;;10.75;2.88;;;;;;;8.47;98.99;93254.00;5078620;28;20028;-89
2022/01/31 12:40:15;;;;;;;7.95;2.45;;;;;;;8.73;100.00;93252.91;5044022;28;20029;-89
2022/01/31 12:45:18;;;;;;;3.53;1.88;;;;;;;8.97;96.80;93245.00;5078009;28;20024;-89
2022/01/31 12:48:06;;;;;;;9.02;2.45;;;;;;;9.19;90.95;93227.94;5078095;28;20059;-89
2022/01/31 12:50:33;;;;;;;3.78;1.63;;;;;;;9.30;92.89;93231.16;5077635;28;20031;-89
2022/01/31 12:53:04;;;;;;;3.97;1.70;;;;;;;9.28;89.31;93228.06;5060237;28;20025;-88
2022/01/31 12:55:30;;;;;;;4.32;1.52;;;;;;;9.38;86.99;93219.25;5061188;28;20055;-88
2022/01/31 12:57:56;;;;;;;4.05;1.40;;;;;;;9.55;91.71;93216.91;5078182;28;20028;-88
2022/01/31 13:00:41;;;;;;;5.22;1.30;;;;;;;9.43;85.78;93204.28;5043555;28;20444;-89
2022/01/31 13:03:10;;;;;;;3.15;1.80;;;;;;;9.59;83.79;93193.53;5060617;28;20021;-89
2022/01/31 13:05:38;;;;;;;3.08;1.48;;;;;;;9.82;81.86;93191.81;5060155;28;20333;-89
2022/01/31 13:08:23;;;;;;;4.03;1.45;;;;;;;10.04;80.84;93188.53;5043773;28;20063;-89
2022/01/31 13:10:51;;;;;;;3.70;1.45;;;;;;;10.00;78.80;93192.78;5059976;28;20032;-89
2022/01/31 13:13:30;;;;;;;2.25;1.13;;;;;;;10.06;78.80;93182.22;5060477;28;20024;-88
2022/01/31 13:16:06;;;;;;;3.45;1.40;;;;;;;10.23;79.65;93166.69;5043669;28;20089;-89
2022/01/31 13:18:32;;;;;;;6.35;1.02;;;;;;;10.09;76.13;93169.31;5044012;28;20051;-88
2022/01/31 13:21:03;;;;;;;6.65;1.25;;;;;;;10.26;78.15;93155.63;5059587;28;20035;-89
2022/01/31 13:23:30;;;;;;;2.38;1.20;;;;;;;10.22;75.08;93148.66;5059681;28;20441;-89
2022/01/31 13:25:59;;;;;;;2.72;1.10;;;;;;;10.23;74.39;93139.72;5059626;28;20030;-89
2022/01/31 13:28:25;;;;;;;3.92;1.23;;;;;;;10.52;79.57;93142.00;5059759;28;20020;-89
2022/01/31 13:30:51;;;;;;;2.25;1.30;;;;;;;10.49;74.14;93124.28;5077268;28;20031;-89
2022/01/31 13:33:17;;;;;;;6.68;3.05;;;;;;;10.59;73.57;93123.25;5043850;28;20031;-89
2022/01/31 13:35:43;;;;;;;2.78;1.23;;;;;;;10.44;71.95;93116.50;5043301;28;20024;-89
2022/01/31 13:38:11;;;;;;;3.47;1.50;;;;;;;10.51;72.01;93100.38;5040979;28;20024;-89
2022/01/31 13:40:46;;;;;;;5.47;1.70;;;;;;;10.71;75.51;93099.94;5039241;28;20024;-88
2022/01/31 13:43:14;;;;;;;2.53;1.25;;;;;;;10.67;73.83;93087.72;5039760;28;20025;-89
2022/01/31 13:46:30;;;;;;;7.43;2.92;;;;;;;10.56;73.23;93077.47;5039319;28;20025;-88
2022/01/31 13:49:13;;;;;;;3.60;1.50;;;;;;;10.51;68.38;93067.13;5032191;28;20033;-89
2022/01/31 13:51:46;;;;;;;3.35;1.25;;;;;;;10.64;67.10;93044.56;5024028;28;20025;-89
2022/01/31 13:54:12;;;;;;;9.23;4.53;;;;;;;10.64;68.13;93038.56;5023482;28;20102;-89
2022/01/31 13:56:59;;;;;;;4.50;1.63;;;;;;;10.72;68.36;93035.19;5039570;28;20082;-89
2022/01/31 13:59:28;;;;;;;5.18;2.53;;;;;;;10.86;70.19;93038.50;5023106;28;20074;-89